sensor_id;sensor_type;location;lat;lon;timestamp;pressure;altitude;pressure_sealevel;temperature;humidity
84445;BME280;74683;48.402;10.596;2024-02-28T00:00:57;96315.53;;;5.68;83.33
84445;BME280;74683;48.402;10.596;2024-02-28T00:03:23;96310.41;;;5.67;83.26
84445;BME280;74683;48.402;10.596;2024-02-28T00:05:50;96312.31;;;5.66;83.27
84445;BME280;74683;48.402;10.596;2024-02-28T00:08:17;96308.00;;;5.65;83.01
84445;BME280;74683;48.402;10.596;2024-02-28T00:10:45;96311.84;;;5.64;83.68
84445;BME280;74683;48.402;10.596;2024-02-28T00:13:14;96315.72;;;5.63;83.40
84445;BME280;74683;48.402;10.596;2024-02-28T00:15:42;96314.09;;;5.62;83.71
84445;BME280;74683;48.402;10.596;2024-02-28T00:18:08;96324.50;;;5.60;83.69
84445;BME280;74683;48.402;10.596;2024-02-28T00:20:36;96313.13;;;5.58;83.49
84445;BME280;74683;48.402;10.596;2024-02-28T00:23:03;96324.03;;;5.58;83.80
84445;BME280;74683;48.402;10.596;2024-02-28T00:25:30;96323.56;;;5.56;83.50
84445;BME280;74683;48.402;10.596;2024-02-28T00:27:56;96315.72;;;5.55;84.09
84445;BME280;74683;48.402;10.596;2024-02-28T00:30:23;96319.56;;;5.54;83.66
84445;BME280;74683;48.402;10.596;2024-02-28T00:32:50;96319.09;;;5.52;84.09
84445;BME280;74683;48.402;10.596;2024-02-28T00:35:16;96316.66;;;5.50;83.82
84445;BME280;74683;48.402;10.596;2024-02-28T00:37:43;96312.97;;;5.46;83.88
84445;BME280;74683;48.402;10.596;2024-02-28T00:40:10;96321.97;;;5.46;83.71
84445;BME280;74683;48.402;10.596;2024-02-28T00:42:37;96314.09;;;5.45;84.27
84445;BME280;74683;48.402;10.596;2024-02-28T00:45:04;96319.56;;;5.45;83.99
84445;BME280;74683;48.402;10.596;2024-02-28T00:47:30;96321.81;;;5.43;84.27
84445;BME280;74683;48.402;10.596;2024-02-28T00:49:58;96322.13;;;5.41;83.64
84445;BME280;74683;48.402;10.596;2024-02-28T00:52:25;96323.22;;;5.40;83.46
84445;BME280;74683;48.402;10.596;2024-02-28T00:54:52;96324.34;;;5.39;84.46
84445;BME280;74683;48.402;10.596;2024-02-28T00:57:18;96325.47;;;5.38;84.16
84445;BME280;74683;48.402;10.596;2024-02-28T00:59:45;96335.56;;;5.38;84.09
84445;BME280;74683;48.402;10.596;2024-02-28T01:02:12;96338.63;;;5.36;84.12
84445;BME280;74683;48.402;10.596;2024-02-28T01:04:41;96346.00;;;5.36;83.74
84445;BME280;74683;48.402;10.596;2024-02-28T01:07:08;96340.88;;;5.34;83.36
84445;BME280;74683;48.402;10.596;2024-02-28T01:09:35;96343.13;;;5.32;84.09
84445;BME280;74683;48.402;10.596;2024-02-28T01:12:01;96352.44;;;5.31;84.04
84445;BME280;74683;48.402;10.596;2024-02-28T01:14:28;96352.72;;;5.30;84.28
84445;BME280;74683;48.402;10.596;2024-02-28T01:16:54;96349.19;;;5.29;84.01
84445;BME280;74683;48.402;10.596;2024-02-28T01:19:21;96348.72;;;5.27;84.04
84445;BME280;74683;48.402;10.596;2024-02-28T01:21:48;96362.66;;;5.26;84.12
84445;BME280;74683;48.402;10.596;2024-02-28T01:24:14;96369.25;;;5.25;84.22
84445;BME280;74683;48.402;10.596;2024-02-28T01:26:41;96378.53;;;5.24;84.32
84445;BME280;74683;48.402;10.596;2024-02-28T01:29:08;96378.06;;;5.22;83.83
84445;BME280;74683;48.402;10.596;2024-02-28T01:31:34;96386.22;;;5.22;83.69
84445;BME280;74683;48.402;10.596;2024-02-28T01:34:01;96385.44;;;5.21;84.23
84445;BME280;74683;48.402;10.596;2024-02-28T01:36:28;96390.06;;;5.21;84.06
84445;BME280;74683;48.402;10.596;2024-02-28T01:38:54;96387.31;;;5.21;83.92
84445;BME280;74683;48.402;10.596;2024-02-28T01:41:21;96393.59;;;5.21;83.59
84445;BME280;74683;48.402;10.596;2024-02-28T01:43:48;96393.09;;;5.19;84.35
84445;BME280;74683;48.402;10.596;2024-02-28T01:46:26;96395.81;;;5.19;83.54
84445;BME280;74683;48.402;10.596;2024-02-28T01:48:56;96395.03;;;5.18;83.62
84445;BME280;74683;48.402;10.596;2024-02-28T01:51:26;96398.88;;;5.17;83.94
84445;BME280;74683;48.402;10.596;2024-02-28T01:53:54;96403.50;;;5.17;84.13
84445;BME280;74683;48.402;10.596;2024-02-28T01:56:23;96407.38;;;5.16;83.28
84445;BME280;74683;48.402;10.596;2024-02-28T01:58:50;96406.56;;;5.15;83.46
84445;BME280;74683;48.402;10.596;2024-02-28T02:01:17;96411.53;;;5.13;83.64
84445;BME280;74683;48.402;10.596;2024-02-28T02:03:44;96425.16;;;5.13;84.01
84445;BME280;74683;48.402;10.596;2024-02-28T02:06:11;96415.38;;;5.12;83.87
84445;BME280;74683;48.402;10.596;2024-02-28T02:08:38;96426.56;;;5.11;83.94
84445;BME280;74683;48.402;10.596;2024-02-28T02:11:06;96419.22;;;5.11;84.23
84445;BME280;74683;48.402;10.596;2024-02-28T02:13:32;96430.41;;;5.10;83.96
84445;BME280;74683;48.402;10.596;2024-02-28T02:15:59;96430.41;;;5.10;83.62
84445;BME280;74683;48.402;10.596;2024-02-28T02:18:26;96434.25;;;5.09;84.42
84445;BME280;74683;48.402;10.596;2024-02-28T02:20:56;96428.81;;;5.09;84.05
84445;BME280;74683;48.402;10.596;2024-02-28T02:23:25;96425.59;;;5.07;83.53
84445;BME280;74683;48.402;10.596;2024-02-28T02:25:51;96424.31;;;5.04;84.66
84445;BME280;74683;48.402;10.596;2024-02-28T02:28:18;96428.16;;;5.03;84.29
84445;BME280;74683;48.402;10.596;2024-02-28T02:30:45;96428.16;;;5.03;84.75
84445;BME280;74683;48.402;10.596;2024-02-28T02:33:13;96427.66;;;5.01;84.89
84445;BME280;74683;48.402;10.596;2024-02-28T02:35:40;96420.59;;;5.00;84.80
84445;BME280;74683;48.402;10.596;2024-02-28T02:38:07;96420.13;;;4.98;84.36
84445;BME280;74683;48.402;10.596;2024-02-28T02:40:33;96428.63;;;4.97;84.73
84445;BME280;74683;48.402;10.596;2024-02-28T02:43:00;96421.06;;;4.94;84.57
84445;BME280;74683;48.402;10.596;2024-02-28T02:45:26;96428.44;;;4.93;84.34
84445;BME280;74683;48.402;10.596;2024-02-28T02:47:53;96428.75;;;4.92;84.52
84445;BME280;74683;48.402;10.596;2024-02-28T02:50:20;96421.19;;;4.88;84.95
84445;BME280;74683;48.402;10.596;2024-02-28T02:52:46;96429.38;;;4.88;85.39
84445;BME280;74683;48.402;10.596;2024-02-28T02:55:13;96432.41;;;4.87;85.24
84445;BME280;74683;48.402;10.596;2024-02-28T02:57:42;96442.81;;;4.85;85.63
84445;BME280;74683;48.402;10.596;2024-02-28T03:00:10;96429.53;;;4.83;85.23
84445;BME280;74683;48.402;10.596;2024-02-28T03:02:37;96430.94;;;4.81;85.03
84445;BME280;74683;48.402;10.596;2024-02-28T03:05:07;96428.22;;;4.81;85.55
84445;BME280;74683;48.402;10.596;2024-02-28T03:07:34;96427.72;;;4.79;85.41
84445;BME280;74683;48.402;10.596;2024-02-28T03:10:01;96428.84;;;4.78;85.64
84445;BME280;74683;48.402;10.596;2024-02-28T03:12:28;96424.53;;;4.77;85.73
84445;BME280;74683;48.402;10.596;2024-02-28T03:14:55;96422.13;;;4.75;85.86
84445;BME280;74683;48.402;10.596;2024-02-28T03:17:22;96418.09;;;4.73;85.26
84445;BME280;74683;48.402;10.596;2024-02-28T03:19:48;96430.41;;;4.70;86.02
84445;BME280;74683;48.402;10.596;2024-02-28T03:22:15;96429.59;;;4.70;85.53
84445;BME280;74683;48.402;10.596;2024-02-28T03:24:42;96428.00;;;4.69;85.63
84445;BME280;74683;48.402;10.596;2024-02-28T03:27:09;96433.44;;;4.69;85.95
84445;BME280;74683;48.402;10.596;2024-02-28T03:29:35;96436.16;;;4.69;86.26
84445;BME280;74683;48.402;10.596;2024-02-28T03:32:02;96433.44;;;4.69;86.26
84445;BME280;74683;48.402;10.596;2024-02-28T03:34:30;96433.75;;;4.67;86.55
84445;BME280;74683;48.402;10.596;2024-02-28T03:36:57;96448.19;;;4.68;85.87
84445;BME280;74683;48.402;10.596;2024-02-28T03:39:24;96443.84;;;4.67;85.97
84445;BME280;74683;48.402;10.596;2024-02-28T03:41:50;96450.41;;;4.66;85.85
84445;BME280;74683;48.402;10.596;2024-02-28T03:44:17;96450.72;;;4.64;86.03
84445;BME280;74683;48.402;10.596;2024-02-28T03:46:44;96441.75;;;4.64;86.35
84445;BME280;74683;48.402;10.596;2024-02-28T03:49:10;96455.38;;;4.64;86.15
84445;BME280;74683;48.402;10.596;2024-02-28T03:51:40;96450.22;;;4.62;86.01
84445;BME280;74683;48.402;10.596;2024-02-28T03:54:08;96449.72;;;4.60;86.47
84445;BME280;74683;48.402;10.596;2024-02-28T03:56:35;96460.63;;;4.60;86.04
84445;BME280;74683;48.402;10.596;2024-02-28T03:59:02;96460.63;;;4.60;86.31
84445;BME280;74683;48.402;10.596;2024-02-28T04:01:30;96468.78;;;4.60;86.40
84445;BME280;74683;48.402;10.596;2024-02-28T04:03:57;96466.38;;;4.58;86.09
84445;BME280;74683;48.402;10.596;2024-02-28T04:06:24;96475.34;;;4.59;86.37
84445;BME280;74683;48.402;10.596;2024-02-28T04:08:51;96471.03;;;4.58;86.34
84445;BME280;74683;48.402;10.596;2024-02-28T04:11:17;96483.22;;;4.60;85.97
84445;BME280;74683;48.402;10.596;2024-02-28T04:13:45;96479.69;;;4.60;86.07
84445;BME280;74683;48.402;10.596;2024-02-28T04:16:12;96475.66;;;4.57;86.26
84445;BME280;74683;48.402;10.596;2024-02-28T04:18:39;96486.56;;;4.57;86.25
84445;BME280;74683;48.402;10.596;2024-02-28T04:21:06;96484.97;;;4.56;85.64
84445;BME280;74683;48.402;10.596;2024-02-28T04:23:32;96489.59;;;4.56;85.80
84445;BME280;74683;48.402;10.596;2024-02-28T04:25:59;96485.75;;;4.57;86.41
84445;BME280;74683;48.402;10.596;2024-02-28T04:28:26;96489.28;;;4.57;85.65
84445;BME280;74683;48.402;10.596;2024-02-28T04:30:52;96486.88;;;4.56;85.76
84445;BME280;74683;48.402;10.596;2024-02-28T04:33:19;96489.59;;;4.56;85.60
84445;BME280;74683;48.402;10.596;2024-02-28T04:35:46;96494.25;;;4.55;85.97
84445;BME280;74683;48.402;10.596;2024-02-28T04:38:12;96495.34;;;4.54;86.00
84445;BME280;74683;48.402;10.596;2024-02-28T04:40:39;96495.66;;;4.53;86.51
84445;BME280;74683;48.402;10.596;2024-02-28T04:43:06;96494.34;;;4.50;86.59
84445;BME280;74683;48.402;10.596;2024-02-28T04:45:32;96503.31;;;4.51;86.80
84445;BME280;74683;48.402;10.596;2024-02-28T04:47:59;96516.13;;;4.50;86.61
84445;BME280;74683;48.402;10.596;2024-02-28T04:50:25;96515.31;;;4.50;86.73
84445;BME280;74683;48.402;10.596;2024-02-28T04:52:52;96512.91;;;4.48;86.12
84445;BME280;74683;48.402;10.596;2024-02-28T04:55:19;96512.13;;;4.48;86.33
84445;BME280;74683;48.402;10.596;2024-02-28T04:57:45;96522.69;;;4.49;86.42
84445;BME280;74683;48.402;10.596;2024-02-28T05:00:12;96533.56;;;4.49;86.80
84445;BME280;74683;48.402;10.596;2024-02-28T05:02:39;96535.50;;;4.49;86.73
84445;BME280;74683;48.402;10.596;2024-02-28T05:05:06;96535.50;;;4.49;86.48
84445;BME280;74683;48.402;10.596;2024-02-28T05:07:33;96535.81;;;4.47;86.62
84445;BME280;74683;48.402;10.596;2024-02-28T05:09:59;96535.31;;;4.45;86.60
84445;BME280;74683;48.402;10.596;2024-02-28T05:12:26;96539.66;;;4.46;86.77
84445;BME280;74683;48.402;10.596;2024-02-28T05:14:52;96544.91;;;4.43;86.87
84445;BME280;74683;48.402;10.596;2024-02-28T05:17:21;96552.78;;;4.44;87.14
84445;BME280;74683;48.402;10.596;2024-02-28T05:19:47;96549.53;;;4.42;87.28
84445;BME280;74683;48.402;10.596;2024-02-28T05:22:14;96556.59;;;4.43;87.46
84445;BME280;74683;48.402;10.596;2024-02-28T05:24:41;96559.31;;;4.43;87.16
84445;BME280;74683;48.402;10.596;2024-02-28T05:27:09;96570.22;;;4.43;86.68
84445;BME280;74683;48.402;10.596;2024-02-28T05:29:36;96562.06;;;4.43;86.91
84445;BME280;74683;48.402;10.596;2024-02-28T05:32:03;96565.06;;;4.42;87.37
84445;BME280;74683;48.402;10.596;2024-02-28T05:34:30;96562.63;;;4.40;87.61
84445;BME280;74683;48.402;10.596;2024-02-28T05:36:57;96570.81;;;4.40;86.89
84445;BME280;74683;48.402;10.596;2024-02-28T05:39:24;96574.66;;;4.39;86.31
84445;BME280;74683;48.402;10.596;2024-02-28T05:41:51;96581.69;;;4.40;86.10
84445;BME280;74683;48.402;10.596;2024-02-28T05:44:17;96581.19;;;4.38;87.37
84445;BME280;74683;48.402;10.596;2024-02-28T05:46:44;96589.38;;;4.38;86.36
84445;BME280;74683;48.402;10.596;2024-02-28T05:49:10;96600.56;;;4.37;86.34
84445;BME280;74683;48.402;10.596;2024-02-28T05:51:37;96600.56;;;4.37;86.21
84445;BME280;74683;48.402;10.596;2024-02-28T05:54:04;96613.38;;;4.36;86.44
84445;BME280;74683;48.402;10.596;2024-02-28T05:56:30;96609.03;;;4.35;86.09
84445;BME280;74683;48.402;10.596;2024-02-28T05:58:57;96611.28;;;4.33;86.36
84445;BME280;74683;48.402;10.596;2024-02-28T06:01:24;96613.16;;;4.32;86.16
84445;BME280;74683;48.402;10.596;2024-02-28T06:03:51;96621.31;;;4.32;86.52
84445;BME280;74683;48.402;10.596;2024-02-28T06:06:17;96625.16;;;4.31;86.57
84445;BME280;74683;48.402;10.596;2024-02-28T06:08:44;96634.44;;;4.30;86.37
84445;BME280;74683;48.402;10.596;2024-02-28T06:11:11;96645.00;;;4.32;86.51
84445;BME280;74683;48.402;10.596;2024-02-28T06:13:40;96639.56;;;4.32;86.73
84445;BME280;74683;48.402;10.596;2024-02-28T06:16:07;96647.72;;;4.32;86.59
84445;BME280;74683;48.402;10.596;2024-02-28T06:18:33;96654.28;;;4.31;86.65
84445;BME280;74683;48.402;10.596;2024-02-28T06:21:00;96657.00;;;4.31;86.95
84445;BME280;74683;48.402;10.596;2024-02-28T06:23:28;96656.22;;;4.30;86.73
84445;BME280;74683;48.402;10.596;2024-02-28T06:25:56;96653.16;;;4.32;86.63
84445;BME280;74683;48.402;10.596;2024-02-28T06:28:23;96655.09;;;4.31;86.37
84445;BME280;74683;48.402;10.596;2024-02-28T06:30:50;96658.63;;;4.32;86.62
84445;BME280;74683;48.402;10.596;2024-02-28T06:33:17;96665.97;;;4.31;86.77
84445;BME280;74683;48.402;10.596;2024-02-28T06:35:43;96666.78;;;4.32;86.29
84445;BME280;74683;48.402;10.596;2024-02-28T06:38:10;96664.06;;;4.32;86.36
84445;BME280;74683;48.402;10.596;2024-02-28T06:40:37;96660.25;;;4.33;86.65
84445;BME280;74683;48.402;10.596;2024-02-28T06:43:04;96664.59;;;4.34;86.35
84445;BME280;74683;48.402;10.596;2024-02-28T06:45:31;96667.31;;;4.34;86.40
84445;BME280;74683;48.402;10.596;2024-02-28T06:47:58;96674.34;;;4.35;86.88
84445;BME280;74683;48.402;10.596;2024-02-28T06:50:25;96681.72;;;4.35;86.72
84445;BME280;74683;48.402;10.596;2024-02-28T06:52:52;96691.50;;;4.36;86.34
84445;BME280;74683;48.402;10.596;2024-02-28T06:55:20;96690.38;;;4.37;85.83
84445;BME280;74683;48.402;10.596;2024-02-28T06:57:47;96681.41;;;4.36;86.36
84445;BME280;74683;48.402;10.596;2024-02-28T07:00:14;96686.03;;;4.36;86.30
84445;BME280;74683;48.402;10.596;2024-02-28T07:02:44;96694.53;;;4.34;86.21
84445;BME280;74683;48.402;10.596;2024-02-28T07:05:17;96687.16;;;4.35;85.39
84445;BME280;74683;48.402;10.596;2024-02-28T07:07:47;96693.41;;;4.35;86.28
84445;BME280;74683;48.402;10.596;2024-02-28T07:10:14;96692.28;;;4.36;85.84
84445;BME280;74683;48.402;10.596;2024-02-28T07:12:41;96700.47;;;4.36;85.51
84445;BME280;74683;48.402;10.596;2024-02-28T07:15:07;96698.84;;;4.35;85.75
84445;BME280;74683;48.402;10.596;2024-02-28T07:17:34;96703.81;;;4.33;85.77
84445;BME280;74683;48.402;10.596;2024-02-28T07:20:01;96702.69;;;4.34;85.88
84445;BME280;74683;48.402;10.596;2024-02-28T07:22:28;96705.09;;;4.36;86.27
84445;BME280;74683;48.402;10.596;2024-02-28T07:24:54;96702.06;;;4.37;85.44
84445;BME280;74683;48.402;10.596;2024-02-28T07:27:24;96706.09;;;4.40;85.54
84445;BME280;74683;48.402;10.596;2024-02-28T07:29:51;96707.38;;;4.42;85.40
84445;BME280;74683;48.402;10.596;2024-02-28T07:32:18;96705.69;;;4.46;85.80
84445;BME280;74683;48.402;10.596;2024-02-28T07:34:45;96702.66;;;4.48;85.46
84445;BME280;74683;48.402;10.596;2024-02-28T07:37:12;96714.53;;;4.52;85.40
84445;BME280;74683;48.402;10.596;2024-02-28T07:39:38;96716.38;;;4.56;85.36
84445;BME280;74683;48.402;10.596;2024-02-28T07:42:06;96715.44;;;4.61;84.73
84445;BME280;74683;48.402;10.596;2024-02-28T07:44:32;96718.16;;;4.61;85.03
84445;BME280;74683;48.402;10.596;2024-02-28T07:46:59;96714.53;;;4.66;84.77
84445;BME280;74683;48.402;10.596;2024-02-28T07:49:25;96712.22;;;4.73;84.76
84445;BME280;74683;48.402;10.596;2024-02-28T07:51:54;96714.19;;;4.81;84.72
84445;BME280;74683;48.402;10.596;2024-02-28T07:54:21;96716.31;;;4.84;84.43
84445;BME280;74683;48.402;10.596;2024-02-28T07:56:48;96708.16;;;4.84;84.60
84445;BME280;74683;48.402;10.596;2024-02-28T07:59:15;96715.69;;;4.87;83.45
84445;BME280;74683;48.402;10.596;2024-02-28T08:01:42;96717.78;;;4.90;84.35
84445;BME280;74683;48.402;10.596;2024-02-28T08:04:09;96716.69;;;4.91;84.04
84445;BME280;74683;48.402;10.596;2024-02-28T08:06:36;96727.47;;;4.96;83.80
84445;BME280;74683;48.402;10.596;2024-02-28T08:09:03;96729.56;;;4.99;83.36
84445;BME280;74683;48.402;10.596;2024-02-28T08:11:31;96724.81;;;5.05;83.89
84445;BME280;74683;48.402;10.596;2024-02-28T08:13:57;96728.75;;;5.12;82.93
84445;BME280;74683;48.402;10.596;2024-02-28T08:16:24;96730.03;;;5.15;82.88
84445;BME280;74683;48.402;10.596;2024-02-28T08:18:52;96731.47;;;5.12;82.66
84445;BME280;74683;48.402;10.596;2024-02-28T08:21:18;96735.50;;;5.15;83.06
84445;BME280;74683;48.402;10.596;2024-02-28T08:23:46;96733.97;;;5.23;83.34
84445;BME280;74683;48.402;10.596;2024-02-28T08:26:13;96737.56;;;5.32;82.52
84445;BME280;74683;48.402;10.596;2024-02-28T08:28:40;96737.91;;;5.39;82.27
84445;BME280;74683;48.402;10.596;2024-02-28T08:31:07;96738.44;;;5.41;81.98
84445;BME280;74683;48.402;10.596;2024-02-28T08:33:34;96746.09;;;5.39;81.18
84445;BME280;74683;48.402;10.596;2024-02-28T08:36:00;96736.94;;;5.35;81.68
84445;BME280;74683;48.402;10.596;2024-02-28T08:38:27;96736.13;;;5.34;81.32
84445;BME280;74683;48.402;10.596;2024-02-28T08:40:54;96735.81;;;5.36;81.94
84445;BME280;74683;48.402;10.596;2024-02-28T08:43:20;96743.88;;;5.41;81.99
84445;BME280;74683;48.402;10.596;2024-02-28T08:45:47;96741.66;;;5.43;80.88
84445;BME280;74683;48.402;10.596;2024-02-28T08:48:14;96746.09;;;5.39;81.29
84445;BME280;74683;48.402;10.596;2024-02-28T08:50:41;96752.66;;;5.38;81.54
84445;BME280;74683;48.402;10.596;2024-02-28T08:53:08;96755.53;;;5.33;81.57
84445;BME280;74683;48.402;10.596;2024-02-28T08:55:34;96754.63;;;5.24;82.16
84445;BME280;74683;48.402;10.596;2024-02-28T08:58:01;96766.97;;;5.21;82.51
84445;BME280;74683;48.402;10.596;2024-02-28T09:00:28;96770.91;;;5.15;82.45
84445;BME280;74683;48.402;10.596;2024-02-28T09:02:55;96773.66;;;5.15;83.61
84445;BME280;74683;48.402;10.596;2024-02-28T09:05:22;96772.03;;;5.14;82.49
84445;BME280;74683;48.402;10.596;2024-02-28T09:07:50;96770.59;;;5.16;83.27
84445;BME280;74683;48.402;10.596;2024-02-28T09:10:18;96774.94;;;5.17;82.45
84445;BME280;74683;48.402;10.596;2024-02-28T09:12:51;96780.06;;;5.19;83.60
84445;BME280;74683;48.402;10.596;2024-02-28T09:15:19;96780.59;;;5.21;83.20
84445;BME280;74683;48.402;10.596;2024-02-28T09:17:46;96784.31;;;5.25;83.28
84445;BME280;74683;48.402;10.596;2024-02-28T09:20:13;96790.44;;;5.31;82.14
84445;BME280;74683;48.402;10.596;2024-02-28T09:22:40;96789.34;;;5.32;82.91
84445;BME280;74683;48.402;10.596;2024-02-28T09:25:07;96784.88;;;5.36;82.05
84445;BME280;74683;48.402;10.596;2024-02-28T09:27:36;96786.38;;;5.42;82.52
84445;BME280;74683;48.402;10.596;2024-02-28T09:30:03;96785.88;;;5.40;82.83
84445;BME280;74683;48.402;10.596;2024-02-28T09:32:30;96783.13;;;5.40;82.34
84445;BME280;74683;48.402;10.596;2024-02-28T09:34:57;96772.94;;;5.45;82.31
84445;BME280;74683;48.402;10.596;2024-02-28T09:37:24;96780.88;;;5.56;82.27
84445;BME280;74683;48.402;10.596;2024-02-28T09:39:51;96782.66;;;5.60;82.22
84445;BME280;74683;48.402;10.596;2024-02-28T09:42:19;96781.56;;;5.61;81.55
84445;BME280;74683;48.402;10.596;2024-02-28T09:44:46;96780.13;;;5.64;82.25
84445;BME280;74683;48.402;10.596;2024-02-28T09:47:13;96779.63;;;5.62;81.73
84445;BME280;74683;48.402;10.596;2024-02-28T09:49:42;96786.81;;;5.58;82.04
84445;BME280;74683;48.402;10.596;2024-02-28T09:52:09;96781.00;;;5.51;82.29
84445;BME280;74683;48.402;10.596;2024-02-28T09:54:36;96788.78;;;5.43;81.98
84445;BME280;74683;48.402;10.596;2024-02-28T09:57:04;96789.91;;;5.42;82.39
84445;BME280;74683;48.402;10.596;2024-02-28T09:59:30;96788.09;;;5.38;82.73
84445;BME280;74683;48.402;10.596;2024-02-28T10:02:14;96795.78;;;5.36;82.30
84445;BME280;74683;48.402;10.596;2024-02-28T10:04:43;96795.59;;;5.32;82.55
84445;BME280;74683;48.402;10.596;2024-02-28T10:07:14;96804.28;;;5.34;82.82
84445;BME280;74683;48.402;10.596;2024-02-28T10:09:41;96806.75;;;5.44;82.37
84445;BME280;74683;48.402;10.596;2024-02-28T10:12:10;96802.91;;;5.45;81.97
84445;BME280;74683;48.402;10.596;2024-02-28T10:14:37;96801.97;;;5.50;82.26
84445;BME280;74683;48.402;10.596;2024-02-28T10:17:05;96811.03;;;5.59;81.86
84445;BME280;74683;48.402;10.596;2024-02-28T10:19:32;96803.88;;;5.63;81.81
84445;BME280;74683;48.402;10.596;2024-02-28T10:21:59;96809.81;;;5.65;81.40
84445;BME280;74683;48.402;10.596;2024-02-28T10:24:26;96816.25;;;5.69;81.53
84445;BME280;74683;48.402;10.596;2024-02-28T10:26:53;96814.16;;;5.66;80.59
84445;BME280;74683;48.402;10.596;2024-02-28T10:29:24;96817.69;;;5.67;80.50
84445;BME280;74683;48.402;10.596;2024-02-28T10:32:00;96819.13;;;5.64;81.11
84445;BME280;74683;48.402;10.596;2024-02-28T10:34:27;96827.94;;;5.61;81.43
84445;BME280;74683;48.402;10.596;2024-02-28T10:36:56;96829.63;;;5.57;81.23
84445;BME280;74683;48.402;10.596;2024-02-28T10:39:24;96833.97;;;5.58;81.38
84445;BME280;74683;48.402;10.596;2024-02-28T10:41:52;96826.09;;;5.57;80.99
84445;BME280;74683;48.402;10.596;2024-02-28T10:44:20;96837.16;;;5.52;81.57
84445;BME280;74683;48.402;10.596;2024-02-28T10:46:51;96830.88;;;5.51;81.26
84445;BME280;74683;48.402;10.596;2024-02-28T10:49:17;96839.34;;;5.50;80.99
84445;BME280;74683;48.402;10.596;2024-02-28T10:51:46;96839.88;;;5.52;81.72
84445;BME280;74683;48.402;10.596;2024-02-28T10:54:15;96838.84;;;5.47;81.52
84445;BME280;74683;48.402;10.596;2024-02-28T10:56:42;96844.81;;;5.50;81.33
84445;BME280;74683;48.402;10.596;2024-02-28T10:59:11;96844.63;;;5.46;81.58
84445;BME280;74683;48.402;10.596;2024-02-28T11:01:43;96840.91;;;5.42;81.67
84445;BME280;74683;48.402;10.596;2024-02-28T11:04:12;96848.28;;;5.41;81.97
84445;BME280;74683;48.402;10.596;2024-02-28T11:06:49;96840.91;;;5.42;81.84
84445;BME280;74683;48.402;10.596;2024-02-28T11:09:22;96857.56;;;5.40;81.89
84445;BME280;74683;48.402;10.596;2024-02-28T11:11:49;96854.34;;;5.38;81.88
84445;BME280;74683;48.402;10.596;2024-02-28T11:14:19;96853.84;;;5.36;82.05
84445;BME280;74683;48.402;10.596;2024-02-28T11:17:01;96854.34;;;5.38;83.01
84445;BME280;74683;48.402;10.596;2024-02-28T11:19:29;96853.84;;;5.36;82.10
84445;BME280;74683;48.402;10.596;2024-02-28T11:21:58;96854.78;;;5.32;82.73
84445;BME280;74683;48.402;10.596;2024-02-28T11:24:30;96850.13;;;5.32;82.64
84445;BME280;74683;48.402;10.596;2024-02-28T11:26:58;96859.91;;;5.33;81.73
84445;BME280;74683;48.402;10.596;2024-02-28T11:29:28;96859.59;;;5.35;81.93
84445;BME280;74683;48.402;10.596;2024-02-28T11:31:55;96856.16;;;5.29;82.20
84445;BME280;74683;48.402;10.596;2024-02-28T11:34:22;96857.28;;;5.28;82.38
84445;BME280;74683;48.402;10.596;2024-02-28T11:36:50;96858.91;;;5.29;82.24
84445;BME280;74683;48.402;10.596;2024-02-28T11:39:17;96857.28;;;5.28;82.43
84445;BME280;74683;48.402;10.596;2024-02-28T11:41:44;96852.75;;;5.24;82.59
84445;BME280;74683;48.402;10.596;2024-02-28T11:44:15;96855.81;;;5.22;82.32
84445;BME280;74683;48.402;10.596;2024-02-28T11:46:44;96856.78;;;5.26;82.83
84445;BME280;74683;48.402;10.596;2024-02-28T11:49:12;96854.78;;;5.32;82.53
84445;BME280;74683;48.402;10.596;2024-02-28T11:51:43;96854.16;;;5.35;82.35
84445;BME280;74683;48.402;10.596;2024-02-28T11:54:10;96857.38;;;5.37;82.43
84445;BME280;74683;48.402;10.596;2024-02-28T11:56:38;96854.34;;;5.38;82.56
84445;BME280;74683;48.402;10.596;2024-02-28T11:59:05;96845.56;;;5.41;82.76
84445;BME280;74683;48.402;10.596;2024-02-28T12:01:34;96852.31;;;5.44;82.22
84445;BME280;74683;48.402;10.596;2024-02-28T12:04:03;96863.22;;;5.44;81.65
84445;BME280;74683;48.402;10.596;2024-02-28T12:06:35;96856.16;;;5.43;81.90
84445;BME280;74683;48.402;10.596;2024-02-28T12:09:06;96859.88;;;5.47;82.33
84445;BME280;74683;48.402;10.596;2024-02-28T12:11:36;96858.97;;;5.52;81.60
84445;BME280;74683;48.402;10.596;2024-02-28T12:14:04;96862.56;;;5.61;82.40
84445;BME280;74683;48.402;10.596;2024-02-28T12:16:33;96869.19;;;5.68;81.69
84445;BME280;74683;48.402;10.596;2024-02-28T12:18:59;96854.25;;;5.88;80.58
84445;BME280;74683;48.402;10.596;2024-02-28T12:21:26;96862.31;;;6.29;79.72
84445;BME280;74683;48.402;10.596;2024-02-28T12:23:53;96855.22;;;6.59;78.60
84445;BME280;74683;48.402;10.596;2024-02-28T12:26:22;96852.41;;;6.82;77.78
84445;BME280;74683;48.402;10.596;2024-02-28T12:28:49;96853.19;;;7.22;76.24
84445;BME280;74683;48.402;10.596;2024-02-28T12:31:15;96842.94;;;7.71;75.32
84445;BME280;74683;48.402;10.596;2024-02-28T12:33:42;96840.16;;;8.05;73.36
84445;BME280;74683;48.402;10.596;2024-02-28T12:36:09;96841.06;;;8.53;72.06
84445;BME280;74683;48.402;10.596;2024-02-28T12:38:49;96833.06;;;8.86;70.86
84445;BME280;74683;48.402;10.596;2024-02-28T12:41:31;96829.66;;;8.89;69.90
84445;BME280;74683;48.402;10.596;2024-02-28T12:44:05;96829.94;;;8.96;69.49
84445;BME280;74683;48.402;10.596;2024-02-28T12:46:33;96828.63;;;8.94;68.71
84445;BME280;74683;48.402;10.596;2024-02-28T12:48:59;96827.72;;;8.89;68.62
84445;BME280;74683;48.402;10.596;2024-02-28T12:51:37;96827.38;;;8.91;68.58
84445;BME280;74683;48.402;10.596;2024-02-28T12:54:04;96823.91;;;9.03;68.00
84445;BME280;74683;48.402;10.596;2024-02-28T12:56:31;96822.00;;;9.24;67.67
84445;BME280;74683;48.402;10.596;2024-02-28T12:58:58;96819.53;;;9.10;67.73
84445;BME280;74683;48.402;10.596;2024-02-28T13:01:26;96813.00;;;8.94;67.63